sensor_id;sensor_type;location;lat;lon;timestamp;P1;durP1;ratioP1;P2;durP2;ratioP2
20824;SDS011;10573;50.936;6.978;2023-02-25T00:00:15;17.37;;;3.23;;
20824;SDS011;10573;50.936;6.978;2023-02-25T00:02:43;20.42;;;3.60;;
20824;SDS011;10573;50.936;6.978;2023-02-25T00:05:09;17.60;;;3.50;;
20824;SDS011;10573;50.936;6.978;2023-02-25T00:07:35;18.70;;;3.35;;
20824;SDS011;10573;50.936;6.978;2023-02-25T00:10:01;22.63;;;3.92;;
20824;SDS011;10573;50.936;6.978;2023-02-25T00:12:27;17.13;;;3.60;;
20824;SDS011;10573;50.936;6.978;2023-02-25T00:14:53;10.03;;;2.67;;
20824;SDS011;10573;50.936;6.978;2023-02-25T00:17:18;19.97;;;3.10;;
20824;SDS011;10573;50.936;6.978;2023-02-25T00:19:44;13.60;;;3.53;;
20824;SDS011;10573;50.936;6.978;2023-02-25T00:22:09;18.75;;;3.72;;
20824;SDS011;10573;50.936;6.978;2023-02-25T00:24:35;17.97;;;3.40;;
20824;SDS011;10573;50.936;6.978;2023-02-25T00:27:00;14.57;;;3.20;;
20824;SDS011;10573;50.936;6.978;2023-02-25T00:29:26;16.48;;;3.53;;
20824;SDS011;10573;50.936;6.978;2023-02-25T00:31:51;13.57;;;3.97;;
20824;SDS011;10573;50.936;6.978;2023-02-25T00:34:17;17.20;;;3.92;;
20824;SDS011;10573;50.936;6.978;2023-02-25T00:36:43;13.50;;;2.83;;
20824;SDS011;10573;50.936;6.978;2023-02-25T00:39:08;17.10;;;3.53;;
20824;SDS011;10573;50.936;6.978;2023-02-25T00:41:34;23.13;;;4.33;;
20824;SDS011;10573;50.936;6.978;2023-02-25T00:43:59;15.57;;;3.70;;
20824;SDS011;10573;50.936;6.978;2023-02-25T00:46:26;17.67;;;2.97;;
20824;SDS011;10573;50.936;6.978;2023-02-25T00:48:53;16.70;;;3.37;;
20824;SDS011;10573;50.936;6.978;2023-02-25T00:51:20;14.40;;;2.93;;
20824;SDS011;10573;50.936;6.978;2023-02-25T00:53:48;12.10;;;2.80;;
20824;SDS011;10573;50.936;6.978;2023-02-25T00:56:14;14.10;;;2.97;;
20824;SDS011;10573;50.936;6.978;2023-02-25T00:58:42;16.80;;;2.92;;
20824;SDS011;10573;50.936;6.978;2023-02-25T01:01:21;21.17;;;5.97;;
20824;SDS011;10573;50.936;6.978;2023-02-25T01:03:52;32.28;;;8.95;;
20824;SDS011;10573;50.936;6.978;2023-02-25T01:06:20;13.80;;;3.17;;
20824;SDS011;10573;50.936;6.978;2023-02-25T01:08:46;17.77;;;3.30;;
20824;SDS011;10573;50.936;6.978;2023-02-25T01:11:16;13.87;;;3.03;;
20824;SDS011;10573;50.936;6.978;2023-02-25T01:13:46;17.00;;;2.70;;
20824;SDS011;10573;50.936;6.978;2023-02-25T01:16:14;14.35;;;2.92;;
20824;SDS011;10573;50.936;6.978;2023-02-25T01:18:41;16.63;;;3.08;;
20824;SDS011;10573;50.936;6.978;2023-02-25T01:21:07;17.60;;;3.10;;
20824;SDS011;10573;50.936;6.978;2023-02-25T01:23:41;17.45;;;3.00;;
20824;SDS011;10573;50.936;6.978;2023-02-25T01:26:08;15.27;;;3.75;;
20824;SDS011;10573;50.936;6.978;2023-02-25T01:28:34;15.10;;;2.97;;
20824;SDS011;10573;50.936;6.978;2023-02-25T01:30:59;14.60;;;2.75;;
20824;SDS011;10573;50.936;6.978;2023-02-25T01:33:24;12.47;;;2.70;;
20824;SDS011;10573;50.936;6.978;2023-02-25T01:35:50;11.43;;;2.50;;
20824;SDS011;10573;50.936;6.978;2023-02-25T01:38:15;11.38;;;2.67;;
20824;SDS011;10573;50.936;6.978;2023-02-25T01:40:41;14.13;;;2.63;;
20824;SDS011;10573;50.936;6.978;2023-02-25T01:43:07;13.13;;;2.60;;
20824;SDS011;10573;50.936;6.978;2023-02-25T01:45:40;12.73;;;2.63;;
20824;SDS011;10573;50.936;6.978;2023-02-25T01:48:11;14.90;;;3.03;;
20824;SDS011;10573;50.936;6.978;2023-02-25T01:51:02;20.70;;;3.60;;
20824;SDS011;10573;50.936;6.978;2023-02-25T01:53:32;12.93;;;2.35;;
20824;SDS011;10573;50.936;6.978;2023-02-25T01:56:02;17.33;;;3.13;;
20824;SDS011;10573;50.936;6.978;2023-02-25T01:58:28;14.82;;;2.38;;
20824;SDS011;10573;50.936;6.978;2023-02-25T02:00:54;16.80;;;2.58;;
20824;SDS011;10573;50.936;6.978;2023-02-25T02:03:21;20.70;;;3.13;;
20824;SDS011;10573;50.936;6.978;2023-02-25T02:08:16;15.83;;;2.60;;
20824;SDS011;10573;50.936;6.978;2023-02-25T02:10:41;15.07;;;3.10;;
20824;SDS011;10573;50.936;6.978;2023-02-25T02:13:07;13.67;;;2.50;;
20824;SDS011;10573;50.936;6.978;2023-02-25T02:15:33;13.47;;;2.50;;
20824;SDS011;10573;50.936;6.978;2023-02-25T02:18:04;13.80;;;2.72;;
20824;SDS011;10573;50.936;6.978;2023-02-25T02:25:55;16.02;;;2.70;;
20824;SDS011;10573;50.936;6.978;2023-02-25T02:34:40;14.82;;;2.95;;
20824;SDS011;10573;50.936;6.978;2023-02-25T02:37:20;12.23;;;2.65;;
20824;SDS011;10573;50.936;6.978;2023-02-25T02:43:19;14.13;;;2.87;;
20824;SDS011;10573;50.936;6.978;2023-02-25T02:45:58;15.32;;;2.80;;
20824;SDS011;10573;50.936;6.978;2023-02-25T02:48:33;13.52;;;3.00;;
20824;SDS011;10573;50.936;6.978;2023-02-25T02:51:05;15.82;;;3.00;;
20824;SDS011;10573;50.936;6.978;2023-02-25T02:53:43;21.55;;;3.55;;
20824;SDS011;10573;50.936;6.978;2023-02-25T02:56:14;12.63;;;2.95;;
20824;SDS011;10573;50.936;6.978;2023-02-25T02:58:43;20.75;;;3.17;;
20824;SDS011;10573;50.936;6.978;2023-02-25T03:01:18;15.95;;;2.78;;
20824;SDS011;10573;50.936;6.978;2023-02-25T03:03:52;16.17;;;2.97;;
20824;SDS011;10573;50.936;6.978;2023-02-25T03:06:44;14.10;;;3.15;;
20824;SDS011;10573;50.936;6.978;2023-02-25T03:09:35;17.55;;;3.42;;
20824;SDS011;10573;50.936;6.978;2023-02-25T03:12:11;18.30;;;3.53;;
20824;SDS011;10573;50.936;6.978;2023-02-25T03:14:36;16.80;;;3.20;;
20824;SDS011;10573;50.936;6.978;2023-02-25T03:17:06;13.17;;;2.73;;
20824;SDS011;10573;50.936;6.978;2023-02-25T03:19:39;18.88;;;3.30;;
20824;SDS011;10573;50.936;6.978;2023-02-25T03:22:10;19.13;;;3.65;;
20824;SDS011;10573;50.936;6.978;2023-02-25T03:24:49;12.20;;;3.20;;
20824;SDS011;10573;50.936;6.978;2023-02-25T03:27:23;13.32;;;2.78;;
20824;SDS011;10573;50.936;6.978;2023-02-25T03:32:42;15.85;;;2.90;;
20824;SDS011;10573;50.936;6.978;2023-02-25T03:35:13;16.23;;;3.05;;
20824;SDS011;10573;50.936;6.978;2023-02-25T03:37:43;15.57;;;2.83;;
20824;SDS011;10573;50.936;6.978;2023-02-25T03:40:13;14.93;;;3.05;;
20824;SDS011;10573;50.936;6.978;2023-02-25T03:42:42;16.50;;;3.07;;
20824;SDS011;10573;50.936;6.978;2023-02-25T03:45:12;14.98;;;3.20;;
20824;SDS011;10573;50.936;6.978;2023-02-25T03:47:39;14.43;;;2.85;;
20824;SDS011;10573;50.936;6.978;2023-02-25T03:52:38;18.50;;;3.53;;
20824;SDS011;10573;50.936;6.978;2023-02-25T03:55:05;14.93;;;2.57;;
20824;SDS011;10573;50.936;6.978;2023-02-25T03:57:38;13.15;;;2.80;;
20824;SDS011;10573;50.936;6.978;2023-02-25T04:00:15;16.67;;;2.97;;
20824;SDS011;10573;50.936;6.978;2023-02-25T04:02:47;16.05;;;3.13;;
20824;SDS011;10573;50.936;6.978;2023-02-25T04:05:13;16.95;;;3.40;;
20824;SDS011;10573;50.936;6.978;2023-02-25T04:07:40;19.80;;;3.65;;
20824;SDS011;10573;50.936;6.978;2023-02-25T04:10:06;17.10;;;3.33;;
20824;SDS011;10573;50.936;6.978;2023-02-25T04:12:32;14.20;;;2.40;;
20824;SDS011;10573;50.936;6.978;2023-02-25T04:14:58;11.38;;;2.45;;
20824;SDS011;10573;50.936;6.978;2023-02-25T04:17:24;15.23;;;3.08;;
20824;SDS011;10573;50.936;6.978;2023-02-25T04:19:49;14.50;;;2.70;;
20824;SDS011;10573;50.936;6.978;2023-02-25T04:22:14;12.77;;;2.63;;
20824;SDS011;10573;50.936;6.978;2023-02-25T04:24:40;15.25;;;2.80;;
20824;SDS011;10573;50.936;6.978;2023-02-25T04:27:05;15.93;;;3.37;;
20824;SDS011;10573;50.936;6.978;2023-02-25T04:29:31;16.47;;;2.80;;
20824;SDS011;10573;50.936;6.978;2023-02-25T04:31:56;13.70;;;2.63;;
20824;SDS011;10573;50.936;6.978;2023-02-25T04:34:22;15.07;;;2.77;;
20824;SDS011;10573;50.936;6.978;2023-02-25T04:36:49;16.40;;;2.72;;
20824;SDS011;10573;50.936;6.978;2023-02-25T04:39:16;17.77;;;2.80;;
20824;SDS011;10573;50.936;6.978;2023-02-25T04:41:42;14.27;;;2.50;;
20824;SDS011;10573;50.936;6.978;2023-02-25T04:44:07;10.88;;;2.30;;
20824;SDS011;10573;50.936;6.978;2023-02-25T04:46:34;10.93;;;2.42;;
20824;SDS011;10573;50.936;6.978;2023-02-25T04:49:05;19.92;;;2.78;;
20824;SDS011;10573;50.936;6.978;2023-02-25T04:51:32;15.20;;;2.88;;
20824;SDS011;10573;50.936;6.978;2023-02-25T04:53:58;13.17;;;2.50;;
20824;SDS011;10573;50.936;6.978;2023-02-25T04:56:23;16.27;;;3.27;;
20824;SDS011;10573;50.936;6.978;2023-02-25T04:58:48;17.63;;;2.63;;
20824;SDS011;10573;50.936;6.978;2023-02-25T05:01:14;10.55;;;2.17;;
20824;SDS011;10573;50.936;6.978;2023-02-25T05:03:40;13.10;;;2.45;;
20824;SDS011;10573;50.936;6.978;2023-02-25T05:06:05;15.77;;;2.83;;
20824;SDS011;10573;50.936;6.978;2023-02-25T05:08:32;13.65;;;2.97;;
20824;SDS011;10573;50.936;6.978;2023-02-25T05:10:58;15.38;;;2.30;;
20824;SDS011;10573;50.936;6.978;2023-02-25T05:13:24;13.40;;;2.87;;
20824;SDS011;10573;50.936;6.978;2023-02-25T05:15:50;14.60;;;2.60;;
20824;SDS011;10573;50.936;6.978;2023-02-25T05:18:16;11.13;;;2.50;;
20824;SDS011;10573;50.936;6.978;2023-02-25T05:20:42;15.83;;;2.73;;
20824;SDS011;10573;50.936;6.978;2023-02-25T05:23:09;16.05;;;2.97;;
20824;SDS011;10573;50.936;6.978;2023-02-25T05:25:35;13.40;;;2.50;;
20824;SDS011;10573;50.936;6.978;2023-02-25T05:28:05;17.97;;;2.70;;
20824;SDS011;10573;50.936;6.978;2023-02-25T05:30:31;13.57;;;2.10;;
20824;SDS011;10573;50.936;6.978;2023-02-25T05:32:57;15.83;;;3.20;;
20824;SDS011;10573;50.936;6.978;2023-02-25T05:35:23;11.70;;;2.53;;
20824;SDS011;10573;50.936;6.978;2023-02-25T05:37:48;16.07;;;2.63;;
20824;SDS011;10573;50.936;6.978;2023-02-25T05:40:13;15.65;;;2.20;;
20824;SDS011;10573;50.936;6.978;2023-02-25T05:42:39;20.08;;;3.13;;
20824;SDS011;10573;50.936;6.978;2023-02-25T05:45:08;17.17;;;2.67;;
20824;SDS011;10573;50.936;6.978;2023-02-25T05:47:33;11.90;;;2.53;;
20824;SDS011;10573;50.936;6.978;2023-02-25T05:49:59;14.05;;;3.20;;
20824;SDS011;10573;50.936;6.978;2023-02-25T05:52:25;15.27;;;3.15;;
20824;SDS011;10573;50.936;6.978;2023-02-25T05:54:51;12.00;;;3.00;;
20824;SDS011;10573;50.936;6.978;2023-02-25T05:57:16;17.05;;;3.03;;
20824;SDS011;10573;50.936;6.978;2023-02-25T05:59:41;15.63;;;2.70;;
20824;SDS011;10573;50.936;6.978;2023-02-25T06:02:07;15.67;;;2.53;;
20824;SDS011;10573;50.936;6.978;2023-02-25T06:04:32;14.32;;;2.85;;
20824;SDS011;10573;50.936;6.978;2023-02-25T06:06:57;15.77;;;3.37;;
20824;SDS011;10573;50.936;6.978;2023-02-25T06:09:23;18.80;;;2.97;;
20824;SDS011;10573;50.936;6.978;2023-02-25T06:11:48;15.68;;;3.38;;
20824;SDS011;10573;50.936;6.978;2023-02-25T06:14:14;12.98;;;2.95;;
20824;SDS011;10573;50.936;6.978;2023-02-25T06:16:40;18.40;;;3.10;;
20824;SDS011;10573;50.936;6.978;2023-02-25T06:19:06;11.32;;;2.25;;
20824;SDS011;10573;50.936;6.978;2023-02-25T06:21:34;14.93;;;2.90;;
20824;SDS011;10573;50.936;6.978;2023-02-25T06:24:00;10.77;;;2.58;;
20824;SDS011;10573;50.936;6.978;2023-02-25T06:26:26;13.30;;;2.67;;
20824;SDS011;10573;50.936;6.978;2023-02-25T06:28:52;18.23;;;2.83;;
20824;SDS011;10573;50.936;6.978;2023-02-25T06:31:18;15.10;;;2.90;;
20824;SDS011;10573;50.936;6.978;2023-02-25T06:33:46;14.77;;;3.05;;
20824;SDS011;10573;50.936;6.978;2023-02-25T06:36:12;17.83;;;2.95;;
20824;SDS011;10573;50.936;6.978;2023-02-25T06:38:39;15.23;;;2.83;;
20824;SDS011;10573;50.936;6.978;2023-02-25T06:41:14;11.60;;;2.80;;
20824;SDS011;10573;50.936;6.978;2023-02-25T06:43:41;15.57;;;2.65;;
20824;SDS011;10573;50.936;6.978;2023-02-25T06:46:09;14.63;;;2.55;;
20824;SDS011;10573;50.936;6.978;2023-02-25T06:48:37;14.43;;;2.65;;
20824;SDS011;10573;50.936;6.978;2023-02-25T06:51:02;16.17;;;2.73;;
20824;SDS011;10573;50.936;6.978;2023-02-25T06:53:33;15.07;;;2.85;;
20824;SDS011;10573;50.936;6.978;2023-02-25T06:55:59;20.60;;;2.92;;
20824;SDS011;10573;50.936;6.978;2023-02-25T06:58:24;16.38;;;2.60;;
20824;SDS011;10573;50.936;6.978;2023-02-25T07:00:50;18.30;;;3.10;;
20824;SDS011;10573;50.936;6.978;2023-02-25T07:03:15;13.10;;;2.80;;
20824;SDS011;10573;50.936;6.978;2023-02-25T07:05:41;19.57;;;3.00;;
20824;SDS011;10573;50.936;6.978;2023-02-25T07:08:07;12.67;;;2.57;;
20824;SDS011;10573;50.936;6.978;2023-02-25T07:10:33;16.63;;;2.60;;
20824;SDS011;10573;50.936;6.978;2023-02-25T07:12:58;9.10;;;3.00;;
20824;SDS011;10573;50.936;6.978;2023-02-25T07:15:24;14.93;;;2.63;;
20824;SDS011;10573;50.936;6.978;2023-02-25T07:17:49;17.33;;;3.03;;
20824;SDS011;10573;50.936;6.978;2023-02-25T07:20:15;15.48;;;2.83;;
20824;SDS011;10573;50.936;6.978;2023-02-25T07:22:40;15.52;;;2.70;;
20824;SDS011;10573;50.936;6.978;2023-02-25T07:25:06;15.05;;;2.60;;
20824;SDS011;10573;50.936;6.978;2023-02-25T07:27:35;17.27;;;2.97;;
20824;SDS011;10573;50.936;6.978;2023-02-25T07:30:03;17.30;;;2.40;;
20824;SDS011;10573;50.936;6.978;2023-02-25T07:32:29;10.48;;;2.70;;
20824;SDS011;10573;50.936;6.978;2023-02-25T07:34:55;16.10;;;2.80;;
20824;SDS011;10573;50.936;6.978;2023-02-25T07:37:20;14.10;;;2.50;;
20824;SDS011;10573;50.936;6.978;2023-02-25T07:39:46;15.83;;;2.70;;
20824;SDS011;10573;50.936;6.978;2023-02-25T07:42:11;22.33;;;3.10;;
20824;SDS011;10573;50.936;6.978;2023-02-25T07:44:36;18.43;;;2.97;;
20824;SDS011;10573;50.936;6.978;2023-02-25T07:47:02;18.23;;;3.17;;
20824;SDS011;10573;50.936;6.978;2023-02-25T07:49:27;17.10;;;3.10;;
20824;SDS011;10573;50.936;6.978;2023-02-25T07:51:53;16.90;;;3.13;;
20824;SDS011;10573;50.936;6.978;2023-02-25T07:54:18;18.60;;;4.53;;
20824;SDS011;10573;50.936;6.978;2023-02-25T07:56:45;16.55;;;2.72;;
20824;SDS011;10573;50.936;6.978;2023-02-25T07:59:11;19.00;;;2.92;;
20824;SDS011;10573;50.936;6.978;2023-02-25T08:01:37;12.17;;;2.70;;
20824;SDS011;10573;50.936;6.978;2023-02-25T08:04:04;19.00;;;3.53;;
20824;SDS011;10573;50.936;6.978;2023-02-25T08:06:30;20.35;;;3.22;;
20824;SDS011;10573;50.936;6.978;2023-02-25T08:09:06;18.85;;;3.33;;
20824;SDS011;10573;50.936;6.978;2023-02-25T08:11:32;17.97;;;3.23;;
20824;SDS011;10573;50.936;6.978;2023-02-25T08:13:59;19.97;;;4.07;;
20824;SDS011;10573;50.936;6.978;2023-02-25T08:16:25;17.70;;;3.05;;
20824;SDS011;10573;50.936;6.978;2023-02-25T08:18:51;18.20;;;2.97;;
20824;SDS011;10573;50.936;6.978;2023-02-25T08:21:18;17.38;;;3.03;;
20824;SDS011;10573;50.936;6.978;2023-02-25T08:23:47;20.73;;;3.10;;
20824;SDS011;10573;50.936;6.978;2023-02-25T08:26:17;19.27;;;2.70;;
20824;SDS011;10573;50.936;6.978;2023-02-25T08:28:43;14.70;;;3.30;;
20824;SDS011;10573;50.936;6.978;2023-02-25T08:31:09;19.98;;;3.03;;
20824;SDS011;10573;50.936;6.978;2023-02-25T08:33:42;14.45;;;2.80;;
20824;SDS011;10573;50.936;6.978;2023-02-25T08:36:10;21.42;;;3.00;;
20824;SDS011;10573;50.936;6.978;2023-02-25T08:38:41;18.60;;;2.85;;
20824;SDS011;10573;50.936;6.978;2023-02-25T08:41:06;18.52;;;2.53;;
20824;SDS011;10573;50.936;6.978;2023-02-25T08:43:33;18.77;;;3.47;;
20824;SDS011;10573;50.936;6.978;2023-02-25T08:45:59;18.38;;;3.95;;
20824;SDS011;10573;50.936;6.978;2023-02-25T08:48:24;20.40;;;3.60;;
20824;SDS011;10573;50.936;6.978;2023-02-25T08:50:50;16.77;;;2.90;;
20824;SDS011;10573;50.936;6.978;2023-02-25T08:53:16;15.85;;;2.90;;
20824;SDS011;10573;50.936;6.978;2023-02-25T08:55:41;17.03;;;3.40;;
20824;SDS011;10573;50.936;6.978;2023-02-25T08:58:07;20.30;;;2.90;;
20824;SDS011;10573;50.936;6.978;2023-02-25T09:00:32;20.57;;;3.50;;
20824;SDS011;10573;50.936;6.978;2023-02-25T09:02:58;19.33;;;3.27;;
20824;SDS011;10573;50.936;6.978;2023-02-25T09:05:24;23.67;;;3.50;;
20824;SDS011;10573;50.936;6.978;2023-02-25T09:07:50;25.25;;;4.43;;
20824;SDS011;10573;50.936;6.978;2023-02-25T09:10:16;22.27;;;3.28;;
20824;SDS011;10573;50.936;6.978;2023-02-25T09:12:43;16.65;;;2.80;;
20824;SDS011;10573;50.936;6.978;2023-02-25T09:15:09;19.65;;;4.10;;
20824;SDS011;10573;50.936;6.978;2023-02-25T09:17:36;13.45;;;2.88;;
20824;SDS011;10573;50.936;6.978;2023-02-25T09:20:02;19.92;;;3.40;;
20824;SDS011;10573;50.936;6.978;2023-02-25T09:22:31;16.08;;;2.75;;
20824;SDS011;10573;50.936;6.978;2023-02-25T09:24:58;19.02;;;3.55;;
20824;SDS011;10573;50.936;6.978;2023-02-25T09:27:23;17.17;;;3.60;;
20824;SDS011;10573;50.936;6.978;2023-02-25T09:29:48;15.63;;;2.93;;
20824;SDS011;10573;50.936;6.978;2023-02-25T09:32:18;11.73;;;2.65;;
20824;SDS011;10573;50.936;6.978;2023-02-25T09:34:44;11.55;;;2.45;;
20824;SDS011;10573;50.936;6.978;2023-02-25T09:37:10;10.27;;;1.92;;
20824;SDS011;10573;50.936;6.978;2023-02-25T09:39:37;7.47;;;2.20;;
20824;SDS011;10573;50.936;6.978;2023-02-25T09:42:06;10.60;;;2.38;;
20824;SDS011;10573;50.936;6.978;2023-02-25T09:44:47;16.02;;;2.92;;
20824;SDS011;10573;50.936;6.978;2023-02-25T09:47:26;14.57;;;2.80;;
20824;SDS011;10573;50.936;6.978;2023-02-25T09:49:58;17.20;;;4.03;;
20824;SDS011;10573;50.936;6.978;2023-02-25T09:52:35;13.57;;;3.85;;
20824;SDS011;10573;50.936;6.978;2023-02-25T09:57:43;15.43;;;3.63;;
20824;SDS011;10573;50.936;6.978;2023-02-25T10:00:19;20.35;;;3.45;;
20824;SDS011;10573;50.936;6.978;2023-02-25T10:13:32;15.73;;;4.10;;
20824;SDS011;10573;50.936;6.978;2023-02-25T10:16:18;20.00;;;4.38;;
20824;SDS011;10573;50.936;6.978;2023-02-25T10:19:02;14.75;;;4.80;;
20824;SDS011;10573;50.936;6.978;2023-02-25T10:21:34;11.68;;;4.35;;
20824;SDS011;10573;50.936;6.978;2023-02-25T10:26:41;16.92;;;5.88;;
20824;SDS011;10573;50.936;6.978;2023-02-25T10:29:37;17.73;;;5.00;;
20824;SDS011;10573;50.936;6.978;2023-02-25T10:32:14;21.10;;;5.72;;
20824;SDS011;10573;50.936;6.978;2023-02-25T10:34:41;16.10;;;5.00;;
20824;SDS011;10573;50.936;6.978;2023-02-25T10:37:10;19.30;;;5.05;;
20824;SDS011;10573;50.936;6.978;2023-02-25T10:39:41;14.85;;;5.80;;
20824;SDS011;10573;50.936;6.978;2023-02-25T10:42:08;14.68;;;5.20;;
20824;SDS011;10573;50.936;6.978;2023-02-25T10:44:34;13.45;;;5.15;;
20824;SDS011;10573;50.936;6.978;2023-02-25T10:47:02;19.40;;;5.40;;
20824;SDS011;10573;50.936;6.978;2023-02-25T10:49:30;13.57;;;5.23;;
20824;SDS011;10573;50.936;6.978;2023-02-25T10:52:03;18.58;;;6.45;;
20824;SDS011;10573;50.936;6.978;2023-02-25T10:54:46;16.35;;;6.70;;
20824;SDS011;10573;50.936;6.978;2023-02-25T10:57:26;11.70;;;5.30;;
20824;SDS011;10573;50.936;6.978;2023-02-25T10:59:59;17.27;;;5.78;;
20824;SDS011;10573;50.936;6.978;2023-02-25T11:02:29;12.23;;;5.32;;
20824;SDS011;10573;50.936;6.978;2023-02-25T11:04:59;10.93;;;4.50;;
20824;SDS011;10573;50.936;6.978;2023-02-25T11:07:30;9.47;;;5.17;;
20824;SDS011;10573;50.936;6.978;2023-02-25T11:12:40;10.10;;;4.22;;
20824;SDS011;10573;50.936;6.978;2023-02-25T11:17:49;8.00;;;3.60;;
20824;SDS011;10573;50.936;6.978;2023-02-25T11:20:20;7.25;;;3.63;;
20824;SDS011;10573;50.936;6.978;2023-02-25T11:22:54;7.30;;;3.13;;
20824;SDS011;10573;50.936;6.978;2023-02-25T11:28:15;9.82;;;3.33;;
20824;SDS011;10573;50.936;6.978;2023-02-25T11:30:44;6.03;;;2.57;;
20824;SDS011;10573;50.936;6.978;2023-02-25T11:33:31;7.80;;;2.60;;
20824;SDS011;10573;50.936;6.978;2023-02-25T11:35:59;5.57;;;2.20;;
20824;SDS011;10573;50.936;6.978;2023-02-25T11:38:35;4.18;;;1.40;;
20824;SDS011;10573;50.936;6.978;2023-02-25T11:41:03;4.68;;;1.90;;
20824;SDS011;10573;50.936;6.978;2023-02-25T11:43:39;3.63;;;1.35;;
20824;SDS011;10573;50.936;6.978;2023-02-25T11:46:07;3.50;;;1.50;;
20824;SDS011;10573;50.936;6.978;2023-02-25T11:51:28;3.33;;;1.23;;
20824;SDS011;10573;50.936;6.978;2023-02-25T11:56:46;3.38;;;1.30;;
20824;SDS011;10573;50.936;6.978;2023-02-25T12:02:00;5.07;;;1.30;;
20824;SDS011;10573;50.936;6.978;2023-02-25T12:05:10;4.78;;;1.52;;
20824;SDS011;10573;50.936;6.978;2023-02-25T12:07:50;2.33;;;1.33;;
20824;SDS011;10573;50.936;6.978;2023-02-25T12:18:25;2.70;;;1.13;;
20824;SDS011;10573;50.936;6.978;2023-02-25T13:40:19;8.38;;;2.53;;
20824;SDS011;10573;50.936;6.978;2023-02-25T13:53:56;5.60;;;1.67;;
20824;SDS011;10573;50.936;6.978;2023-02-25T13:56:49;7.63;;;2.10;;
20824;SDS011;10573;50.936;6.978;2023-02-25T14:04:38;4.50;;;1.60;;
20824;SDS011;10573;50.936;6.978;2023-02-25T14:45:36;7.63;;;1.70;;
20824;SDS011;10573;50.936;6.978;2023-02-25T14:48:13;4.80;;;1.60;;
20824;SDS011;10573;50.936;6.978;2023-02-25T14:50:46;5.43;;;1.33;;
20824;SDS011;10573;50.936;6.978;2023-02-25T14:58:52;5.00;;;1.30;;
20824;SDS011;10573;50.936;6.978;2023-02-25T15:01:42;5.07;;;1.50;;
20824;SDS011;10573;50.936;6.978;2023-02-25T15:13:24;4.75;;;1.40;;
20824;SDS011;10573;50.936;6.978;2023-02-25T15:21:41;5.97;;;1.55;;
20824;SDS011;10573;50.936;6.978;2023-02-25T15:24:34;3.95;;;1.10;;
20824;SDS011;10573;50.936;6.978;2023-02-25T15:27:00;4.93;;;1.10;;
20824;SDS011;10573;50.936;6.978;2023-02-25T15:32:07;3.42;;;1.25;;
20824;SDS011;10573;50.936;6.978;2023-02-25T15:34:36;5.32;;;1.20;;
20824;SDS011;10573;50.936;6.978;2023-02-25T15:37:22;3.70;;;1.15;;
20824;SDS011;10573;50.936;6.978;2023-02-25T15:39:53;5.13;;;1.47;;
20824;SDS011;10573;50.936;6.978;2023-02-25T15:55:45;5.35;;;1.50;;
20824;SDS011;10573;50.936;6.978;2023-02-25T16:08:29;4.80;;;1.27;;
20824;SDS011;10573;50.936;6.978;2023-02-25T16:11:01;3.30;;;1.17;;
20824;SDS011;10573;50.936;6.978;2023-02-25T16:13:30;7.25;;;1.33;;
20824;SDS011;10573;50.936;6.978;2023-02-25T16:15:58;4.97;;;1.02;;
20824;SDS011;10573;50.936;6.978;2023-02-25T16:18:36;3.95;;;1.20;;
20824;SDS011;10573;50.936;6.978;2023-02-25T16:21:21;5.18;;;1.77;;
20824;SDS011;10573;50.936;6.978;2023-02-25T16:23:53;3.23;;;1.10;;
20824;SDS011;10573;50.936;6.978;2023-02-25T16:32:26;4.82;;;1.02;;
20824;SDS011;10573;50.936;6.978;2023-02-25T16:35:12;3.22;;;1.02;;
20824;SDS011;10573;50.936;6.978;2023-02-25T16:40:25;2.30;;;0.90;;
20824;SDS011;10573;50.936;6.978;2023-02-25T16:42:53;2.28;;;0.93;;
20824;SDS011;10573;50.936;6.978;2023-02-25T16:45:23;5.43;;;1.27;;
20824;SDS011;10573;50.936;6.978;2023-02-25T16:47:58;3.85;;;1.55;;
20824;SDS011;10573;50.936;6.978;2023-02-25T16:50:28;5.40;;;1.88;;
20824;SDS011;10573;50.936;6.978;2023-02-25T16:52:56;8.37;;;1.77;;
20824;SDS011;10573;50.936;6.978;2023-02-25T16:55:24;4.97;;;1.98;;
20824;SDS011;10573;50.936;6.978;2023-02-25T17:00:38;4.17;;;1.10;;
20824;SDS011;10573;50.936;6.978;2023-02-25T17:03:14;5.55;;;1.30;;
20824;SDS011;10573;50.936;6.978;2023-02-25T17:05:40;5.93;;;2.70;;
20824;SDS011;10573;50.936;6.978;2023-02-25T17:08:11;4.17;;;1.10;;
20824;SDS011;10573;50.936;6.978;2023-02-25T17:10:44;2.80;;;1.40;;
20824;SDS011;10573;50.936;6.978;2023-02-25T17:13:13;3.65;;;1.20;;
20824;SDS011;10573;50.936;6.978;2023-02-25T17:15:44;14.02;;;6.15;;
20824;SDS011;10573;50.936;6.978;2023-02-25T17:20:58;5.72;;;2.15;;
20824;SDS011;10573;50.936;6.978;2023-02-25T17:23:27;7.43;;;0.97;;
20824;SDS011;10573;50.936;6.978;2023-02-25T17:25:52;3.60;;;1.17;;
20824;SDS011;10573;50.936;6.978;2023-02-25T17:28:23;5.90;;;1.20;;
20824;SDS011;10573;50.936;6.978;2023-02-25T17:30:52;5.85;;;0.90;;
20824;SDS011;10573;50.936;6.978;2023-02-25T17:33:30;3.97;;;1.10;;
20824;SDS011;10573;50.936;6.978;2023-02-25T17:35:57;4.37;;;1.20;;
20824;SDS011;10573;50.936;6.978;2023-02-25T17:38:26;3.70;;;1.10;;
20824;SDS011;10573;50.936;6.978;2023-02-25T17:40:53;5.07;;;1.27;;
20824;SDS011;10573;50.936;6.978;2023-02-25T17:43:20;4.53;;;1.20;;
20824;SDS011;10573;50.936;6.978;2023-02-25T17:45:48;6.28;;;1.45;;
20824;SDS011;10573;50.936;6.978;2023-02-25T17:48:18;2.20;;;0.83;;
20824;SDS011;10573;50.936;6.978;2023-02-25T17:50:53;3.20;;;0.87;;
20824;SDS011;10573;50.936;6.978;2023-02-25T17:56:21;2.50;;;1.30;;
20824;SDS011;10573;50.936;6.978;2023-02-25T17:58:52;4.10;;;1.20;;
20824;SDS011;10573;50.936;6.978;2023-02-25T18:01:26;6.13;;;1.58;;
20824;SDS011;10573;50.936;6.978;2023-02-25T18:07:20;4.55;;;1.23;;
20824;SDS011;10573;50.936;6.978;2023-02-25T18:09:55;2.97;;;1.00;;
20824;SDS011;10573;50.936;6.978;2023-02-25T18:12:22;6.32;;;1.60;;
20824;SDS011;10573;50.936;6.978;2023-02-25T18:14:53;6.25;;;1.70;;
20824;SDS011;10573;50.936;6.978;2023-02-25T18:17:25;6.17;;;1.40;;
20824;SDS011;10573;50.936;6.978;2023-02-25T18:19:53;5.57;;;1.75;;
20824;SDS011;10573;50.936;6.978;2023-02-25T18:22:32;4.45;;;1.60;;
20824;SDS011;10573;50.936;6.978;2023-02-25T18:25:05;4.32;;;1.80;;
20824;SDS011;10573;50.936;6.978;2023-02-25T18:27:51;4.70;;;1.25;;
20824;SDS011;10573;50.936;6.978;2023-02-25T18:30:18;6.75;;;1.60;;
20824;SDS011;10573;50.936;6.978;2023-02-25T18:32:46;9.15;;;3.38;;
20824;SDS011;10573;50.936;6.978;2023-02-25T18:35:12;12.38;;;3.85;;
20824;SDS011;10573;50.936;6.978;2023-02-25T18:37:38;11.65;;;4.90;;
20824;SDS011;10573;50.936;6.978;2023-02-25T18:40:04;4.28;;;2.50;;
20824;SDS011;10573;50.936;6.978;2023-02-25T18:42:31;6.15;;;2.33;;
20824;SDS011;10573;50.936;6.978;2023-02-25T18:44:57;6.22;;;2.30;;
20824;SDS011;10573;50.936;6.978;2023-02-25T18:47:23;6.82;;;2.53;;
20824;SDS011;10573;50.936;6.978;2023-02-25T18:49:48;6.80;;;1.73;;
20824;SDS011;10573;50.936;6.978;2023-02-25T18:52:19;8.73;;;3.27;;
20824;SDS011;10573;50.936;6.978;2023-02-25T18:54:47;8.50;;;2.60;;
20824;SDS011;10573;50.936;6.978;2023-02-25T18:57:21;6.87;;;1.83;;
20824;SDS011;10573;50.936;6.978;2023-02-25T18:59:48;4.38;;;1.77;;
20824;SDS011;10573;50.936;6.978;2023-02-25T19:02:32;8.23;;;1.90;;
20824;SDS011;10573;50.936;6.978;2023-02-25T19:05:00;6.32;;;2.05;;
20824;SDS011;10573;50.936;6.978;2023-02-25T19:07:28;5.25;;;1.60;;
20824;SDS011;10573;50.936;6.978;2023-02-25T19:09:55;8.55;;;1.90;;
20824;SDS011;10573;50.936;6.978;2023-02-25T19:12:21;7.40;;;1.93;;
20824;SDS011;10573;50.936;6.978;2023-02-25T19:14:51;8.37;;;1.40;;